Time;durP1;ratioP1;P1;durP2;ratioP2;P2;SDS_P1;SDS_P2;PMS_P1;PMS_P2;Temp;Humidity;BMP_temperature;BMP_pressure;BME280_temperature;BME280_humidity;BME280_pressure;Samples;Min_cycle;Max_cycle;Signal;HPM_P1;HPM_P2
2022/06/14 00:01:14;;;;;;;;;;;;;;;;;;5072236;28;19920;-68
2022/06/14 00:03:40;;;;;;;;;;;;;;;;;;5072605;28;19947;-68
2022/06/14 00:06:06;;;;;;;;;;;;;;;;;;5072878;28;19924;-68
2022/06/14 00:08:32;;;;;;;;;;;;;;;;;;5072584;28;19924;-68
2022/06/14 00:10:58;;;;;;;;;;;;;;;;;;5055892;28;19920;-68
2022/06/14 00:13:24;;;;;;;;;;;;;;;;;;5073370;28;19969;-68
2022/06/14 00:15:49;;;;;;;;;;;;;;;;;;5072198;28;19931;-68
2022/06/14 00:18:16;;;;;;;;;;;;;;;;;;5072200;28;20074;-68
2022/06/14 00:20:43;;;;;;;;;;;;;;;;;;5071813;28;19920;-68
2022/06/14 00:23:12;;;;;;;;;;;;;;;;;;5071427;28;19932;-68
2022/06/14 00:25:39;;;;;;;;;;;;;;;;;;5078789;28;19927;-68
2022/06/14 00:28:10;;;;;;;;;;;;;;;;;;5095946;28;19920;-68
2022/06/14 00:30:39;;;;;;;;;;;;;;;;;;5077913;28;19924;-68
2022/06/14 00:33:05;;;;;;;;;;;;;;;;;;5078930;28;19920;-68
2022/06/14 00:35:32;;;;;;;;;;;;;;;;;;5095742;28;19985;-68
2022/06/14 00:37:58;;;;;;;;;;;;;;;;;;5096558;28;19942;-68
2022/06/14 00:40:25;;;;;;;;;;;;;;;;;;5095956;28;20413;-68
2022/06/14 00:42:51;;;;;;;;;;;;;;;;;;5095220;28;19951;-68
2022/06/14 00:45:18;;;;;;;;;;;;;;;;;;5095434;28;19920;-68
2022/06/14 00:47:45;;;;;;;;;;;;;;;;;;5095971;28;20003;-68
2022/06/14 00:50:11;;;;;;;;;;;;;;;;;;5095368;28;19924;-68
2022/06/14 00:52:37;;;;;;;;;;;;;;;;;;5077830;28;19981;-68
2022/06/14 00:55:03;;;;;;;;;;;;;;;;;;5095602;28;19963;-68
2022/06/14 00:57:29;;;;;;;;;;;;;;;;;;5097217;28;19969;-68
2022/06/14 00:59:56;;;;;;;;;;;;;;;;;;5095038;28;20011;-68
2022/06/14 01:02:22;;;;;;;;;;;;;;;;;;5078458;28;19931;-68
2022/06/14 01:04:49;;;;;;;;;;;;;;;;;;5095348;28;19920;-68
2022/06/14 01:07:15;;;;;;;;;;;;;;;;;;5095160;28;19928;-68
2022/06/14 01:09:42;;;;;;;;;;;;;;;;;;5095201;28;19920;-68
2022/06/14 01:12:09;;;;;;;;;;;;;;;;;;5095318;28;19920;-68
2022/06/14 01:14:36;;;;;;;;;;;;;;;;;;5095115;28;19967;-68
2022/06/14 01:17:02;;;;;;;;;;;;;;;;;;5095646;28;19924;-68
2022/06/14 01:19:29;;;;;;;;;;;;;;;;;;5078518;28;19920;-68
2022/06/14 01:21:56;;;;;;;;;;;;;;;;;;5095591;28;19970;-68
2022/06/14 01:24:24;;;;;;;;;;;;;;;;;;5078634;28;19928;-68
2022/06/14 01:26:51;;;;;;;;;;;;;;;;;;5094929;28;20011;-68
2022/06/14 01:29:17;;;;;;;;;;;;;;;;;;5095036;28;19920;-68
2022/06/14 01:31:47;;;;;;;;;;;;;;;;;;5094358;28;19936;-68
2022/06/14 01:34:13;;;;;;;;;;;;;;;;;;5096165;28;19924;-68
2022/06/14 01:36:40;;;;;;;;;;;;;;;;;;5093772;28;19943;-68
2022/06/14 01:39:07;;;;;;;;;;;;;;;;;;5077986;28;19924;-68
2022/06/14 01:41:33;;;;;;;;;;;;;;;;;;5095019;28;19927;-68
2022/06/14 01:44:00;;;;;;;;;;;;;;;;;;5093939;28;20271;-68
2022/06/14 01:46:26;;;;;;;;;;;;;;;;;;5094519;28;19924;-68
2022/06/14 01:48:53;;;;;;;;;;;;;;;;;;5094606;28;19930;-68
2022/06/14 01:54:04;;;;;;;;;;;;;;;;;;5094338;28;20282;-68
2022/06/14 01:56:30;;;;;;;;;;;;;;;;;;5094257;28;19920;-68
2022/06/14 01:58:56;;;;;;;;;;;;;;;;;;5093985;28;19969;-68
2022/06/14 02:01:24;;;;;;;;;;;;;;;;;;5095456;28;19924;-68
2022/06/14 02:06:35;;;;;;;;;;;;;;;;;;5093205;28;20359;-68
2022/06/14 02:09:02;;;;;;;;;;;;;;;;;;5094068;28;20006;-68
2022/06/14 02:11:29;;;;;;;;;;;;;;;;;;5095161;28;20012;-68
2022/06/14 02:13:56;;;;;;;;;;;;;;;;;;5076840;28;20003;-68
2022/06/14 02:16:22;;;;;;;;;;;;;;;;;;5093812;28;19927;-68
2022/06/14 02:18:48;;;;;;;;;;;;;;;;;;5094218;28;19921;-68
2022/06/14 02:21:13;;;;;;;;;;;;;;;;;;5076361;28;19924;-68
2022/06/14 02:23:40;;;;;;;;;;;;;;;;;;5094215;28;19983;-68
2022/06/14 02:26:07;;;;;;;;;;;;;;;;;;5093876;28;19932;-68
2022/06/14 02:28:33;;;;;;;;;;;;;;;;;;5092993;28;19920;-68
2022/06/14 02:30:59;;;;;;;;;;;;;;;;;;5093352;28;20279;-68
2022/06/14 02:33:26;;;;;;;;;;;;;;;;;;5093727;28;19962;-68
2022/06/14 02:35:52;;;;;;;;;;;;;;;;;;5093493;28;19927;-68
2022/06/14 02:38:21;;;;;;;;;;;;;;;;;;5093732;28;19927;-68
2022/06/14 02:40:47;;;;;;;;;;;;;;;;;;5093461;28;20386;-68
2022/06/14 02:43:14;;;;;;;;;;;;;;;;;;5092598;28;19931;-68
2022/06/14 02:45:42;;;;;;;;;;;;;;;;;;5092886;28;19920;-68
2022/06/14 02:48:08;;;;;;;;;;;;;;;;;;5092833;28;19927;-68
2022/06/14 02:50:35;;;;;;;;;;;;;;;;;;5092773;28;20318;-68
2022/06/14 02:53:02;;;;;;;;;;;;;;;;;;5093175;28;19920;-68
2022/06/14 02:55:30;;;;;;;;;;;;;;;;;;5092806;28;19969;-68
2022/06/14 02:57:57;;;;;;;;;;;;;;;;;;5075985;28;20018;-68
2022/06/14 03:00:24;;;;;;;;;;;;;;;;;;5094434;28;19921;-68
2022/06/14 03:02:50;;;;;;;;;;;;;;;;;;5093137;28;19981;-68
2022/06/14 03:05:20;;;;;;;;;;;;;;;;;;5092765;28;19930;-68
2022/06/14 03:07:47;;;;;;;;;;;;;;;;;;5093045;28;19928;-68
2022/06/14 03:10:14;;;;;;;;;;;;;;;;;;5092847;28;19920;-68
2022/06/14 03:12:40;;;;;;;;;;;;;;;;;;5092340;28;19974;-68
2022/06/14 03:15:08;;;;;;;;;;;;;;;;;;5076486;28;19928;-68
2022/06/14 03:17:35;;;;;;;;;;;;;;;;;;5094822;28;19927;-68
2022/06/14 03:20:01;;;;;;;;;;;;;;;;;;5094132;28;20010;-68
2022/06/14 03:22:29;;;;;;;;;;;;;;;;;;5094685;28;19959;-68
2022/06/14 03:24:55;;;;;;;;;;;;;;;;;;5094868;28;19927;-68
2022/06/14 03:27:21;;;;;;;;;;;;;;;;;;5073387;28;19924;-68
2022/06/14 03:29:48;;;;;;;;;;;;;;;;;;5072014;28;19928;-68
2022/06/14 03:32:16;;;;;;;;;;;;;;;;;;5072099;28;20039;-68
2022/06/14 03:34:42;;;;;;;;;;;;;;;;;;5055121;28;20612;-68
2022/06/14 03:37:08;;;;;;;;;;;;;;;;;;5072366;28;19921;-68
2022/06/14 03:39:34;;;;;;;;;;;;;;;;;;5073201;28;19924;-68
2022/06/14 03:42:00;;;;;;;;;;;;;;;;;;5071556;28;19928;-68
2022/06/14 03:44:28;;;;;;;;;;;;;;;;;;5072362;28;19928;-68
2022/06/14 03:46:56;;;;;;;;;;;;;;;;;;5072323;28;19964;-68
2022/06/14 03:49:23;;;;;;;;;;;;;;;;;;5072282;28;19921;-68
2022/06/14 03:51:49;;;;;;;;;;;;;;;;;;5072279;28;20337;-68
2022/06/14 03:54:16;;;;;;;;;;;;;;;;;;5072345;28;19928;-68
2022/06/14 03:56:42;;;;;;;;;;;;;;;;;;5073562;28;19928;-68
2022/06/14 03:59:07;;;;;;;;;;;;;;;;;;5073258;28;20355;-68
2022/06/14 04:01:35;;;;;;;;;;;;;;;;;;5076245;28;19920;-68
2022/06/14 04:04:01;;;;;;;;;;;;;;;;;;5075991;28;19928;-68
2022/06/14 04:06:27;;;;;;;;;;;;;;;;;;5075832;28;19955;-68
2022/06/14 04:08:54;;;;;;;;;;;;;;;;;;5076266;28;20009;-68
2022/06/14 04:11:21;;;;;;;;;;;;;;;;;;5059674;28;19920;-68
2022/06/14 04:13:49;;;;;;;;;;;;;;;;;;5075621;28;19920;-68
2022/06/14 04:16:16;;;;;;;;;;;;;;;;;;5076351;28;19952;-68
2022/06/14 04:18:42;;;;;;;;;;;;;;;;;;5076411;28;19928;-68
2022/06/14 04:21:11;;;;;;;;;;;;;;;;;;5075795;28;20290;-68
2022/06/14 04:23:37;;;;;;;;;;;;;;;;;;5076043;28;20267;-68
2022/06/14 04:26:03;;;;;;;;;;;;;;;;;;5084068;28;19920;-68
2022/06/14 04:28:29;;;;;;;;;;;;;;;;;;5096027;28;20328;-67
2022/06/14 04:30:56;;;;;;;;;;;;;;;;;;5079583;28;19920;-67
2022/06/14 04:33:23;;;;;;;;;;;;;;;;;;5096473;28;19924;-67
2022/06/14 04:35:49;;;;;;;;;;;;;;;;;;5096077;28;20369;-67
2022/06/14 04:38:16;;;;;;;;;;;;;;;;;;5096422;28;19924;-67
2022/06/14 04:40:43;;;;;;;;;;;;;;;;;;5096585;28;19928;-67
2022/06/14 04:43:09;;;;;;;;;;;;;;;;;;5078761;28;19977;-67
2022/06/14 04:45:41;;;;;;;;;;;;;;;;;;5095682;28;19920;-67
2022/06/14 04:48:08;;;;;;;;;;;;;;;;;;5079079;28;19920;-67
2022/06/14 04:50:35;;;;;;;;;;;;;;;;;;5095039;28;19931;-67
2022/06/14 04:53:01;;;;;;;;;;;;;;;;;;5095808;28;20421;-67
2022/06/14 04:55:28;;;;;;;;;;;;;;;;;;5095641;28;19920;-67
2022/06/14 04:57:54;;;;;;;;;;;;;;;;;;5095541;28;20437;-67
2022/06/14 05:00:21;;;;;;;;;;;;;;;;;;5095568;28;19928;-67
2022/06/14 05:02:48;;;;;;;;;;;;;;;;;;5095557;28;19924;-67
2022/06/14 05:05:15;;;;;;;;;;;;;;;;;;5078253;28;19920;-67
2022/06/14 05:07:43;;;;;;;;;;;;;;;;;;5078964;28;19920;-67
2022/06/14 05:10:10;;;;;;;;;;;;;;;;;;5094804;28;19927;-67
2022/06/14 05:12:37;;;;;;;;;;;;;;;;;;5095732;28;19931;-67
2022/06/14 05:15:04;;;;;;;;;;;;;;;;;;5095692;28;19972;-67
2022/06/14 05:17:31;;;;;;;;;;;;;;;;;;5095504;28;19920;-67
2022/06/14 05:19:58;;;;;;;;;;;;;;;;;;5095718;28;19962;-67
2022/06/14 05:22:26;;;;;;;;;;;;;;;;;;5095037;28;19920;-67
2022/06/14 05:24:52;;;;;;;;;;;;;;;;;;5096453;28;19959;-67
2022/06/14 05:27:18;;;;;;;;;;;;;;;;;;5059331;28;20500;-67
2022/06/14 05:29:44;;;;;;;;;;;;;;;;;;5057938;28;19920;-67
2022/06/14 05:32:12;;;;;;;;;;;;;;;;;;5074046;28;19956;-67
2022/06/14 05:34:38;;;;;;;;;;;;;;;;;;5074585;28;20375;-67
2022/06/14 05:37:06;;;;;;;;;;;;;;;;;;5074663;28;19920;-67
2022/06/14 05:39:32;;;;;;;;;;;;;;;;;;5074534;28;19971;-67
2022/06/14 05:41:58;;;;;;;;;;;;;;;;;;5056871;28;19995;-67
2022/06/14 05:44:25;;;;;;;;;;;;;;;;;;5074400;28;19924;-67
2022/06/14 05:46:52;;;;;;;;;;;;;;;;;;5075022;28;19960;-67
2022/06/14 05:49:18;;;;;;;;;;;;;;;;;;5076229;28;19921;-68
2022/06/14 05:51:44;;;;;;;;;;;;;;;;;;5074933;28;19920;-69
2022/06/14 05:54:10;;;;;;;;;;;;;;;;;;5092871;28;19921;-68
2022/06/14 05:56:36;;;;;;;;;;;;;;;;;;5092420;28;19924;-68
2022/06/14 05:59:04;;;;;;;;;;;;;;;;;;5077110;28;19991;-68
2022/06/14 06:01:30;;;;;;;;;;;;;;;;;;5094285;28;19926;-68
2022/06/14 06:03:57;;;;;;;;;;;;;;;;;;5092321;28;20294;-68
2022/06/14 06:06:24;;;;;;;;;;;;;;;;;;5093940;28;19926;-68
2022/06/14 06:08:50;;;;;;;;;;;;;;;;;;5093811;28;19920;-68
2022/06/14 06:11:19;;;;;;;;;;;;;;;;;;5099126;28;20360;-68
2022/06/14 06:13:45;;;;;;;;;;;;;;;;;;5113571;28;20247;-68
2022/06/14 06:16:11;;;;;;;;;;;;;;;;;;5099737;28;19931;-68
2022/06/14 06:18:44;;;;;;;;;;;;;;;;;;5089604;28;19935;-68
2022/06/14 06:21:10;;;;;;;;;;;;;;;;;;5092225;28;19924;-67
2022/06/14 06:23:38;;;;;;;;;;;;;;;;;;5090863;28;19955;-67
2022/06/14 06:26:04;;;;;;;;;;;;;;;;;;5087853;28;19920;-69
2022/06/14 06:28:31;;;;;;;;;;;;;;;;;;5082197;28;20298;-67
2022/06/14 06:30:57;;;;;;;;;;;;;;;;;;5079761;28;20366;-68
2022/06/14 06:33:24;;;;;;;;;;;;;;;;;;5086552;28;19924;-68
2022/06/14 06:35:50;;;;;;;;;;;;;;;;;;5086774;28;20027;-68
2022/06/14 06:38:16;;;;;;;;;;;;;;;;;;5093321;28;20298;-69
2022/06/14 06:41:49;;;;;;;;;;;;;;;;;;5095674;28;19928;-68
2022/06/14 06:43:28;;;;;;;;;;;;;;;;;;5091896;28;20049;-68
2022/06/14 06:45:54;;;;;;;;;;;;;;;;;;5094104;28;20014;-68
2022/06/14 06:48:21;;;;;;;;;;;;;;;;;;5096143;28;19920;-68
2022/06/14 06:50:47;;;;;;;;;;;;;;;;;;5095632;28;19927;-69
2022/06/14 06:53:13;;;;;;;;;;;;;;;;;;5092036;28;20048;-69
2022/06/14 06:55:40;;;;;;;;;;;;;;;;;;5093853;28;20395;-69
2022/06/14 06:58:06;;;;;;;;;;;;;;;;;;5092229;28;19953;-68
2022/06/14 07:00:32;;;;;;;;;;;;;;;;;;5106895;28;20337;-69
2022/06/14 07:02:58;;;;;;;;;;;;;;;;;;5113030;28;19924;-69
2022/06/14 07:05:24;;;;;;;;;;;;;;;;;;5093928;28;20007;-68
2022/06/14 07:07:50;;;;;;;;;;;;;;;;;;5094949;28;19920;-68
2022/06/14 07:10:15;;;;;;;;;;;;;;;;;;5091780;28;20074;-69
2022/06/14 07:12:42;;;;;;;;;;;;;;;;;;5090662;28;19935;-67
2022/06/14 07:15:08;;;;;;;;;;;;;;;;;;5092998;28;19940;-68
2022/06/14 07:17:35;;;;;;;;;;;;;;;;;;5091323;28;20335;-67
2022/06/14 07:20:02;;;;;;;;;;;;;;;;;;5098074;28;19920;-69
2022/06/14 07:22:27;;;;;;;;;;;;;;;;;;5112792;28;19926;-67
2022/06/14 07:24:54;;;;;;;;;;;;;;;;;;5107932;28;20018;-66
2022/06/14 07:27:21;;;;;;;;;;;;;;;;;;5099267;28;20288;-68
2022/06/14 07:29:48;;;;;;;;;;;;;;;;;;5093524;28;19935;-69
2022/06/14 07:32:14;;;;;;;;;;;;;;;;;;5089398;28;19920;-68
2022/06/14 07:34:41;;;;;;;;;;;;;;;;;;5094493;28;19920;-70
2022/06/14 07:37:07;;;;;;;;;;;;;;;;;;5108864;28;19923;-70
2022/06/14 07:39:32;;;;;;;;;;;;;;;;;;5095972;28;19943;-69
2022/06/14 07:41:58;;;;;;;;;;;;;;;;;;5091433;28;19928;-68
2022/06/14 07:44:26;;;;;;;;;;;;;;;;;;5100352;28;21280;-68
2022/06/14 07:46:52;;;;;;;;;;;;;;;;;;5100288;28;19997;-67
2022/06/14 07:49:18;;;;;;;;;;;;;;;;;;5097123;28;20432;-68
2022/06/14 07:51:44;;;;;;;;;;;;;;;;;;5096038;28;19924;-67
2022/06/14 07:54:10;;;;;;;;;;;;;;;;;;5112079;28;19923;-69
2022/06/14 07:56:36;;;;;;;;;;;;;;;;;;5093602;28;20338;-68
2022/06/14 07:59:02;;;;;;;;;;;;;;;;;;5089601;28;19931;-69
2022/06/14 08:01:29;;;;;;;;;;;;;;;;;;5091098;28;19920;-70
2022/06/14 08:03:55;;;;;;;;;;;;;;;;;;5089370;28;20509;-68
2022/06/14 08:06:22;;;;;;;;;;;;;;;;;;5092208;28;19967;-70
2022/06/14 08:08:48;;;;;;;;;;;;;;;;;;5094308;28;19924;-69
2022/06/14 08:11:14;;;;;;;;;;;;;;;;;;5091464;28;19927;-68
2022/06/14 08:13:40;;;;;;;;;;;;;;;;;;5091663;28;20500;-68
2022/06/14 08:16:07;;;;;;;;;;;;;;;;;;5095748;28;20617;-69
2022/06/14 08:18:35;;;;;;;;;;;;;;;;;;5093194;28;19920;-67
2022/06/14 08:21:01;;;;;;;;;;;;;;;;;;5092818;28;19920;-69
2022/06/14 08:23:27;;;;;;;;;;;;;;;;;;5093216;28;20042;-68
2022/06/14 08:25:55;;;;;;;;;;;;;;;;;;5098222;28;19924;-68
2022/06/14 08:28:21;;;;;;;;;;;;;;;;;;5089787;28;19927;-68
2022/06/14 08:30:47;;;;;;;;;;;;;;;;;;5079308;28;19942;-68
2022/06/14 08:33:13;;;;;;;;;;;;;;;;;;5079715;28;19930;-70
2022/06/14 08:35:40;;;;;;;;;;;;;;;;;;5081606;28;20285;-70
2022/06/14 08:38:12;;;;;;;;;;;;;;;;;;5091788;28;19924;-68
2022/06/14 08:40:38;;;;;;;;;;;;;;;;;;5091728;28;19927;-67
2022/06/14 08:43:05;;;;;;;;;;;;;;;;;;5076510;28;19925;-69
2022/06/14 08:45:31;;;;;;;;;;;;;;;;;;5088394;28;19928;-68
2022/06/14 08:47:58;;;;;;;;;;;;;;;;;;5091764;28;19924;-68
2022/06/14 08:50:24;;;;;;;;;;;;;;;;;;5096111;28;19959;-68
2022/06/14 08:52:50;;;;;;;;;;;;;;;;;;5094561;28;19920;-69
2022/06/14 08:55:18;;;;;;;;;;;;;;;;;;5097799;28;19924;-70
2022/06/14 08:57:44;;;;;;;;;;;;;;;;;;5115566;28;19978;-70
2022/06/14 09:00:11;;;;;;;;;;;;;;;;;;5104900;28;19967;-68
2022/06/14 09:02:37;;;;;;;;;;;;;;;;;;5095718;28;19928;-68
2022/06/14 09:05:04;;;;;;;;;;;;;;;;;;5097286;28;20344;-68
2022/06/14 09:07:30;;;;;;;;;;;;;;;;;;5097884;28;19932;-68
2022/06/14 09:09:55;;;;;;;;;;;;;;;;;;5095480;28;19920;-67
2022/06/14 09:12:23;;;;;;;;;;;;;;;;;;5094323;28;19920;-68
2022/06/14 09:14:49;;;;;;;;;;;;;;;;;;5094708;28;19969;-67
2022/06/14 09:17:15;;;;;;;;;;;;;;;;;;5107856;28;19924;-67
2022/06/14 09:19:41;;;;;;;;;;;;;;;;;;5108013;28;19999;-68
2022/06/14 09:22:07;;;;;;;;;;;;;;;;;;5095934;28;20286;-67
2022/06/14 09:24:32;;;;;;;;;;;;;;;;;;5077476;28;20049;-69
2022/06/14 09:26:58;;;;;;;;;;;;;;;;;;5094607;28;20023;-70
2022/06/14 09:29:24;;;;;;;;;;;;;;;;;;5093386;28;19941;-71
2022/06/14 09:31:50;;;;;;;;;;;;;;;;;;5091880;28;19920;-69
2022/06/14 09:34:16;;;;;;;;;;;;;;;;;;5094118;28;20053;-70
2022/06/14 09:36:42;;;;;;;;;;;;;;;;;;5100841;28;19996;-68
2022/06/14 09:39:08;;;;;;;;;;;;;;;;;;5102074;28;19953;-68
2022/06/14 09:41:36;;;;;;;;;;;;;;;;;;5092312;28;19920;-69
2022/06/14 09:44:04;;;;;;;;;;;;;;;;;;5094998;28;19924;-68
2022/06/14 09:46:30;;;;;;;;;;;;;;;;;;5075393;28;19946;-68
2022/06/14 09:48:56;;;;;;;;;;;;;;;;;;5088186;28;20374;-70
2022/06/14 09:51:22;;;;;;;;;;;;;;;;;;5083937;28;20341;-70
2022/06/14 09:53:53;;;;;;;;;;;;;;;;;;5070728;28;19926;-70
2022/06/14 09:56:19;;;;;;;;;;;;;;;;;;5094409;28;19972;-69
2022/06/14 09:58:46;;;;;;;;;;;;;;;;;;5086743;28;19924;-69
2022/06/14 10:01:13;;;;;;;;;;;;;;;;;;5088428;28;19931;-69
2022/06/14 10:03:39;;;;;;;;;;;;;;;;;;5084617;28;19973;-68
2022/06/14 10:06:05;;;;;;;;;;;;;;;;;;5086287;28;19929;-68
2022/06/14 10:08:31;;;;;;;;;;;;;;;;;;5086847;28;19920;-70
2022/06/14 10:10:56;;;;;;;;;;;;;;;;;;5079178;28;20021;-70
2022/06/14 10:13:22;;;;;;;;;;;;;;;;;;5090099;28;19924;-70
2022/06/14 10:15:49;;;;;;;;;;;;;;;;;;5083779;28;19985;-70
2022/06/14 10:18:16;;;;;;;;;;;;;;;;;;5094076;28;19927;-70
2022/06/14 10:20:42;;;;;;;;;;;;;;;;;;5091775;28;19924;-70
2022/06/14 10:23:08;;;;;;;;;;;;;;;;;;5082520;28;20495;-69
2022/06/14 10:25:33;;;;;;;;;;;;;;;;;;5073587;28;20638;-69
2022/06/14 10:28:11;;;;;;;;;;;;;;;;;;5083519;28;19998;-69
2022/06/14 10:30:38;;;;;;;;;;;;;;;;;;5073600;28;19978;-70
2022/06/14 10:33:05;;;;;;;;;;;;;;;;;;5102377;28;19919;-70
2022/06/14 10:35:31;;;;;;;;;;;;;;;;;;5113518;28;19977;-70
2022/06/14 10:37:59;;;;;;;;;;;;;;;;;;5095010;28;19919;-70
2022/06/14 10:40:26;;;;;;;;;;;;;;;;;;5081209;28;19928;-70
2022/06/14 10:42:52;;;;;;;;;;;;;;;;;;5095315;28;20019;-70
2022/06/14 10:45:18;;;;;;;;;;;;;;;;;;5093463;28;19920;-70
2022/06/14 10:47:45;;;;;;;;;;;;;;;;;;5096371;28;19950;-70
2022/06/14 10:50:12;;;;;;;;;;;;;;;;;;5094332;28;19920;-70
2022/06/14 10:52:39;;;;;;;;;;;;;;;;;;5093815;28;19920;-70
2022/06/14 10:55:07;;;;;;;;;;;;;;;;;;5094410;28;19920;-70
2022/06/14 10:57:37;;;;;;;;;;;;;;;;;;5093867;28;19920;-70
2022/06/14 11:00:03;;;;;;;;;;;;;;;;;;5093220;28;19958;-70
2022/06/14 11:02:29;;;;;;;;;;;;;;;;;;5093452;28;19924;-70
2022/06/14 11:04:56;;;;;;;;;;;;;;;;;;5098419;28;19942;-70
2022/06/14 11:07:25;;;;;;;;;;;;;;;;;;5092626;28;20370;-67
2022/06/14 11:09:51;;;;;;;;;;;;;;;;;;5087517;28;19928;-66
2022/06/14 11:12:17;;;;;;;;;;;;;;;;;;5083833;28;19999;-67
2022/06/14 11:14:43;;;;;;;;;;;;;;;;;;5077724;28;20010;-68
2022/06/14 11:17:09;;;;;;;;;;;;;;;;;;5085777;28;19920;-70
2022/06/14 11:19:36;;;;;;;;;;;;;;;;;;5091478;28;19920;-68
2022/06/14 11:22:03;;;;;;;;;;;;;;;;;;5099317;28;19924;-68
2022/06/14 11:24:30;;;;;;;;;;;;;;;;;;5095285;28;19938;-67
2022/06/14 11:26:56;;;;;;;;;;;;;;;;;;5093339;28;19934;-68
2022/06/14 11:29:22;;;;;;;;;;;;;;;;;;5089217;28;19931;-67
2022/06/14 11:31:48;;;;;;;;;;;;;;;;;;5089568;28;19920;-67
2022/06/14 11:34:14;;;;;;;;;;;;;;;;;;5082136;28;19973;-69
2022/06/14 11:36:40;;;;;;;;;;;;;;;;;;5065721;28;19985;-68
2022/06/14 11:39:09;;;;;;;;;;;;;;;;;;5083511;28;19929;-69
2022/06/14 11:41:36;;;;;;;;;;;;;;;;;;5087210;28;20431;-68
2022/06/14 11:44:02;;;;;;;;;;;;;;;;;;5078571;28;20038;-67
2022/06/14 11:46:28;;;;;;;;;;;;;;;;;;5090529;28;20010;-67
2022/06/14 11:48:54;;;;;;;;;;;;;;;;;;5088116;28;19920;-66
2022/06/14 11:51:22;;;;;;;;;;;;;;;;;;5091090;28;19920;-67
2022/06/14 11:53:49;;;;;;;;;;;;;;;;;;5090770;28;19990;-68
2022/06/14 11:56:17;;;;;;;;;;;;;;;;;;5089488;28;19973;-70
2022/06/14 11:58:43;;;;;;;;;;;;;;;;;;5079789;28;20036;-71
2022/06/14 12:01:09;;;;;;;;;;;;;;;;;;5086439;28;20011;-72
2022/06/14 12:03:34;;;;;;;;;;;;;;;;;;5073486;28;19928;-71
2022/06/14 12:06:02;;;;;;;;;;;;;;;;;;5088632;28;19920;-71
2022/06/14 12:08:27;;;;;;;;;;;;;;;;;;5090231;28;19931;-68
2022/06/14 12:10:53;;;;;;;;;;;;;;;;;;5090125;28;19920;-68
2022/06/14 12:13:19;;;;;;;;;;;;;;;;;;5090173;28;20587;-70
2022/06/14 12:15:45;;;;;;;;;;;;;;;;;;5089272;28;19971;-68
2022/06/14 12:18:11;;;;;;;;;;;;;;;;;;5090036;28;20487;-68
2022/06/14 12:20:37;;;;;;;;;;;;;;;;;;5095343;28;20328;-68
2022/06/14 12:23:03;;;;;;;;;;;;;;;;;;5114740;28;19978;-67
2022/06/14 12:28:16;;;;;;;;;;;;;;;;;;5093510;28;20478;-71
2022/06/14 12:30:42;;;;;;;;;;;;;;;;;;5093437;28;19928;-67
2022/06/14 12:33:08;;;;;;;;;;;;;;;;;;5096602;28;19942;-69
2022/06/14 12:35:34;;;;;;;;;;;;;;;;;;5095076;28;19920;-71
2022/06/14 12:38:01;;;;;;;;;;;;;;;;;;5096167;28;19920;-70
2022/06/14 12:40:28;;;;;;;;;;;;;;;;;;5096280;28;19924;-71
2022/06/14 12:42:55;;;;;;;;;;;;;;;;;;5096726;28;19908;-72
2022/06/14 12:45:21;;;;;;;;;;;;;;;;;;5095060;28;19920;-72
2022/06/14 12:47:47;;;;;;;;;;;;;;;;;;5093551;28;20331;-71
2022/06/14 12:50:13;;;;;;;;;;;;;;;;;;5093981;28;20027;-68
2022/06/14 12:52:39;;;;;;;;;;;;;;;;;;5092149;28;19921;-67
2022/06/14 12:55:05;;;;;;;;;;;;;;;;;;5094554;28;19924;-69
2022/06/14 12:57:31;;;;;;;;;;;;;;;;;;5093978;28;20263;-67
2022/06/14 12:59:57;;;;;;;;;;;;;;;;;;5096579;28;19975;-68
2022/06/14 13:02:23;;;;;;;;;;;;;;;;;;5094648;28;20007;-67
2022/06/14 13:04:49;;;;;;;;;;;;;;;;;;5093430;28;20023;-69
2022/06/14 13:07:17;;;;;;;;;;;;;;;;;;5094335;28;19963;-69
2022/06/14 13:09:43;;;;;;;;;;;;;;;;;;5110118;28;19970;-66
2022/06/14 13:12:09;;;;;;;;;;;;;;;;;;5112232;28;19924;-67
2022/06/14 13:14:35;;;;;;;;;;;;;;;;;;5113217;28;20051;-68
2022/06/14 13:17:01;;;;;;;;;;;;;;;;;;5105461;28;19919;-70
2022/06/14 13:19:27;;;;;;;;;;;;;;;;;;5095339;28;20037;-69
2022/06/14 13:21:53;;;;;;;;;;;;;;;;;;5098606;28;19920;-68
2022/06/14 13:24:19;;;;;;;;;;;;;;;;;;5093952;28;20274;-68
2022/06/14 13:26:46;;;;;;;;;;;;;;;;;;5094812;28;19924;-70
2022/06/14 13:29:12;;;;;;;;;;;;;;;;;;5094426;28;20477;-68
2022/06/14 13:31:47;;;;;;;;;;;;;;;;;;5095955;28;19932;-67
2022/06/14 13:34:13;;;;;;;;;;;;;;;;;;5091793;28;19927;-69
2022/06/14 13:36:39;;;;;;;;;;;;;;;;;;5083970;28;19924;-69
2022/06/14 13:39:05;;;;;;;;;;;;;;;;;;5095004;28;19924;-69
2022/06/14 13:41:32;;;;;;;;;;;;;;;;;;5096667;28;20062;-70
2022/06/14 13:43:58;;;;;;;;;;;;;;;;;;5093187;28;20306;-69
2022/06/14 13:46:26;;;;;;;;;;;;;;;;;;5093732;28;19924;-67
2022/06/14 13:48:52;;;;;;;;;;;;;;;;;;5095048;28;19924;-69
2022/06/14 13:51:18;;;;;;;;;;;;;;;;;;5076816;28;20012;-68
2022/06/14 13:53:44;;;;;;;;;;;;;;;;;;5088484;28;19920;-69
2022/06/14 13:56:10;;;;;;;;;;;;;;;;;;5095321;28;20432;-69
2022/06/14 13:58:35;;;;;;;;;;;;;;;;;;5095512;28;19920;-69
2022/06/14 14:01:01;;;;;;;;;;;;;;;;;;5095047;28;19920;-70
2022/06/14 14:03:27;;;;;;;;;;;;;;;;;;5087331;28;19956;-69
2022/06/14 14:05:54;;;;;;;;;;;;;;;;;;5087980;28;20007;-69
2022/06/14 14:08:23;;;;;;;;;;;;;;;;;;5082844;28;19926;-69
2022/06/14 14:10:49;;;;;;;;;;;;;;;;;;5093383;28;20011;-69
2022/06/14 14:13:16;;;;;;;;;;;;;;;;;;5092014;28;20007;-67
2022/06/14 14:15:43;;;;;;;;;;;;;;;;;;5094339;28;19931;-69
2022/06/14 14:18:11;;;;;;;;;;;;;;;;;;5092546;28;19968;-71
2022/06/14 14:20:38;;;;;;;;;;;;;;;;;;5093338;28;19924;-69
2022/06/14 14:23:07;;;;;;;;;;;;;;;;;;5074105;28;19931;-69
2022/06/14 14:25:33;;;;;;;;;;;;;;;;;;5095923;28;19931;-68
2022/06/14 14:28:00;;;;;;;;;;;;;;;;;;5092027;28;19920;-69
2022/06/14 14:30:29;;;;;;;;;;;;;;;;;;5092387;28;19934;-68
2022/06/14 14:32:57;;;;;;;;;;;;;;;;;;5101362;28;19928;-69
2022/06/14 14:35:24;;;;;;;;;;;;;;;;;;5093106;28;19920;-68
2022/06/14 14:37:50;;;;;;;;;;;;;;;;;;5093759;28;20321;-69
2022/06/14 14:40:16;;;;;;;;;;;;;;;;;;5092259;28;19967;-67
2022/06/14 14:42:42;;;;;;;;;;;;;;;;;;5092878;28;20331;-67
2022/06/14 14:45:08;;;;;;;;;;;;;;;;;;5090609;28;19931;-67
2022/06/14 14:47:34;;;;;;;;;;;;;;;;;;5093273;28;19920;-66
2022/06/14 14:50:00;;;;;;;;;;;;;;;;;;5104304;28;19968;-67
2022/06/14 14:52:26;;;;;;;;;;;;;;;;;;5110546;28;19931;-68
2022/06/14 14:54:51;;;;;;;;;;;;;;;;;;5090719;28;20336;-67
2022/06/14 14:57:18;;;;;;;;;;;;;;;;;;5100721;28;19951;-68
2022/06/14 14:59:44;;;;;;;;;;;;;;;;;;5111208;28;19928;-65
2022/06/14 15:07:40;;;;;;;;;;;;;;;;;;5092296;28;20251;-67
2022/06/14 15:10:06;;;;;;;;;;;;;;;;;;5092334;28;19949;-67
2022/06/14 15:12:32;;;;;;;;;;;;;;;;;;5091936;28;20066;-67
2022/06/14 15:14:58;;;;;;;;;;;;;;;;;;5111985;28;19920;-67
2022/06/14 15:20:08;;;;;;;;;;;;;;;;;;5092503;28;20370;-67
2022/06/14 15:22:34;;;;;;;;;;;;;;;;;;5091161;28;20003;-67
2022/06/14 15:25:00;;;;;;;;;;;;;;;;;;5094502;28;19924;-67
2022/06/14 15:27:26;;;;;;;;;;;;;;;;;;5092753;28;20401;-67
2022/06/14 15:29:52;;;;;;;;;;;;;;;;;;5091919;28;19920;-67
2022/06/14 15:32:18;;;;;;;;;;;;;;;;;;5092409;28;19942;-67
2022/06/14 15:34:44;;;;;;;;;;;;;;;;;;5090760;28;19942;-67
2022/06/14 15:37:10;;;;;;;;;;;;;;;;;;5091082;28;20003;-67
2022/06/14 15:39:36;;;;;;;;;;;;;;;;;;5092199;28;20008;-67
2022/06/14 15:42:02;;;;;;;;;;;;;;;;;;5090570;28;19954;-67
2022/06/14 15:44:29;;;;;;;;;;;;;;;;;;5091907;28;19924;-67
2022/06/14 15:46:58;;;;;;;;;;;;;;;;;;5110523;28;19920;-67
2022/06/14 15:49:24;;;;;;;;;;;;;;;;;;5111692;28;19920;-67
2022/06/14 15:51:51;;;;;;;;;;;;;;;;;;5111935;28;19927;-67
2022/06/14 15:54:18;;;;;;;;;;;;;;;;;;5097526;28;19931;-67
2022/06/14 15:56:44;;;;;;;;;;;;;;;;;;5090350;28;19920;-67
2022/06/14 15:59:09;;;;;;;;;;;;;;;;;;5091880;28;19969;-67
2022/06/14 16:01:35;;;;;;;;;;;;;;;;;;5091731;28;19943;-67
2022/06/14 16:04:01;;;;;;;;;;;;;;;;;;5089879;28;20045;-67
2022/06/14 16:06:27;;;;;;;;;;;;;;;;;;5105338;28;19970;-67
2022/06/14 16:08:53;;;;;;;;;;;;;;;;;;5111202;28;19972;-67
2022/06/14 16:11:19;;;;;;;;;;;;;;;;;;5091229;28;19998;-67
2022/06/14 16:13:45;;;;;;;;;;;;;;;;;;5091170;28;20391;-67
2022/06/14 16:16:12;;;;;;;;;;;;;;;;;;5092253;28;20299;-67
2022/06/14 16:18:43;;;;;;;;;;;;;;;;;;5091317;28;19920;-67
2022/06/14 16:21:09;;;;;;;;;;;;;;;;;;5091913;28;19927;-67
2022/06/14 16:23:35;;;;;;;;;;;;;;;;;;5091793;28;19928;-67
2022/06/14 16:26:01;;;;;;;;;;;;;;;;;;5091292;28;19920;-67
2022/06/14 16:28:27;;;;;;;;;;;;;;;;;;5092116;28;19924;-67
2022/06/14 16:30:54;;;;;;;;;;;;;;;;;;5091920;28;19973;-67
2022/06/14 16:33:20;;;;;;;;;;;;;;;;;;5091020;28;19963;-67
2022/06/14 16:35:46;;;;;;;;;;;;;;;;;;5091918;28;19975;-67
2022/06/14 16:38:12;;;;;;;;;;;;;;;;;;5091678;28;20010;-67
2022/06/14 16:40:38;;;;;;;;;;;;;;;;;;5091170;28;20359;-67
2022/06/14 16:43:04;;;;;;;;;;;;;;;;;;5091358;28;19978;-67
2022/06/14 16:45:30;;;;;;;;;;;;;;;;;;5091793;28;19989;-67
2022/06/14 16:47:56;;;;;;;;;;;;;;;;;;5091177;28;19973;-67
2022/06/14 16:50:22;;;;;;;;;;;;;;;;;;5091656;28;19932;-67
2022/06/14 16:52:48;;;;;;;;;;;;;;;;;;5090122;28;20293;-67
2022/06/14 16:55:14;;;;;;;;;;;;;;;;;;5090921;28;20342;-67
2022/06/14 16:57:39;;;;;;;;;;;;;;;;;;5091544;28;19920;-67